sensor_id;sensor_type;location;lat;lon;timestamp;pressure;altitude;pressure_sealevel;temperature;humidity
13456;BME280;6800;50.940;6.940;2023-04-07T00:00:20;100647.00;;;18.79;47.60
13456;BME280;6800;50.940;6.940;2023-04-07T00:04:22;100646.72;;;18.53;47.63
13456;BME280;6800;50.940;6.940;2023-04-07T00:08:23;100652.00;;;18.72;47.59
13456;BME280;6800;50.940;6.940;2023-04-07T00:12:25;100639.16;;;18.96;47.23
13456;BME280;6800;50.940;6.940;2023-04-07T00:16:26;100643.09;;;18.63;48.50
13456;BME280;6800;50.940;6.940;2023-04-07T00:20:28;100645.88;;;18.72;48.14
13456;BME280;6800;50.940;6.940;2023-04-07T00:24:29;100648.66;;;18.80;47.84
13456;BME280;6800;50.940;6.940;2023-04-07T00:28:35;100650.59;;;18.58;48.07
13456;BME280;6800;50.940;6.940;2023-04-07T00:32:36;100638.88;;;18.90;47.92
13456;BME280;6800;50.940;6.940;2023-04-07T00:36:37;100643.63;;;18.86;47.72
13456;BME280;6800;50.940;6.940;2023-04-07T00:40:39;100629.59;;;18.76;48.06
13456;BME280;6800;50.940;6.940;2023-04-07T00:44:40;100637.69;;;18.75;48.69
13456;BME280;6800;50.940;6.940;2023-04-07T00:48:41;100635.44;;;18.60;48.40
13456;BME280;6800;50.940;6.940;2023-04-07T00:52:43;100628.88;;;18.93;47.85
13456;BME280;6800;50.940;6.940;2023-04-07T00:56:45;100620.38;;;18.90;47.72
13456;BME280;6800;50.940;6.940;2023-04-07T01:00:57;100623.19;;;18.79;48.39
13456;BME280;6800;50.940;6.940;2023-04-07T01:09:20;100612.91;;;18.47;49.31
13456;BME280;6800;50.940;6.940;2023-04-07T01:13:37;100620.13;;;18.83;48.48
13456;BME280;6800;50.940;6.940;2023-04-07T01:17:47;100617.56;;;19.01;48.15
13456;BME280;6800;50.940;6.940;2023-04-07T01:21:51;100618.94;;;19.05;48.60
13456;BME280;6800;50.940;6.940;2023-04-07T01:30:12;100609.75;;;19.09;48.66
13456;BME280;6800;50.940;6.940;2023-04-07T01:34:14;100618.78;;;19.16;48.11
13456;BME280;6800;50.940;6.940;2023-04-07T01:38:17;100617.94;;;19.25;48.46
13456;BME280;6800;50.940;6.940;2023-04-07T01:42:19;100614.31;;;19.35;48.21
13456;BME280;6800;50.940;6.940;2023-04-07T01:46:21;100618.78;;;19.35;48.47
13456;BME280;6800;50.940;6.940;2023-04-07T01:50:23;100610.41;;;19.39;48.11
13456;BME280;6800;50.940;6.940;2023-04-07T01:54:25;100610.38;;;19.30;48.62
13456;BME280;6800;50.940;6.940;2023-04-07T01:58:28;100613.72;;;19.32;48.82
13456;BME280;6800;50.940;6.940;2023-04-07T02:02:30;100606.09;;;19.29;48.73
13456;BME280;6800;50.940;6.940;2023-04-07T02:06:40;100614.88;;;19.20;48.85
13456;BME280;6800;50.940;6.940;2023-04-07T02:10:45;100611.22;;;19.30;48.96
13456;BME280;6800;50.940;6.940;2023-04-07T02:14:48;100610.09;;;19.33;48.93
13456;BME280;6800;50.940;6.940;2023-04-07T02:18:49;100603.88;;;19.34;48.80
13456;BME280;6800;50.940;6.940;2023-04-07T02:22:51;100609.03;;;19.35;48.88
13456;BME280;6800;50.940;6.940;2023-04-07T02:26:53;100610.06;;;19.52;48.21
13456;BME280;6800;50.940;6.940;2023-04-07T02:30:56;100610.75;;;19.54;48.46
13456;BME280;6800;50.940;6.940;2023-04-07T02:34:58;100612.72;;;19.52;48.67
13456;BME280;6800;50.940;6.940;2023-04-07T02:38:59;100611.09;;;19.41;48.75
13456;BME280;6800;50.940;6.940;2023-04-07T02:43:01;100617.38;;;19.31;48.76
13456;BME280;6800;50.940;6.940;2023-04-07T02:47:02;100615.22;;;19.54;48.84
13456;BME280;6800;50.940;6.940;2023-04-07T02:51:04;100615.41;;;19.42;48.46
13456;BME280;6800;50.940;6.940;2023-04-07T02:55:05;100618.28;;;19.49;48.55
13456;BME280;6800;50.940;6.940;2023-04-07T02:59:07;100619.81;;;19.52;48.66
13456;BME280;6800;50.940;6.940;2023-04-07T03:03:08;100620.47;;;19.63;48.35
13456;BME280;6800;50.940;6.940;2023-04-07T03:07:10;100625.69;;;19.45;48.51
13456;BME280;6800;50.940;6.940;2023-04-07T03:11:12;100621.31;;;19.64;48.22
13456;BME280;6800;50.940;6.940;2023-04-07T03:15:13;100620.16;;;19.39;48.57
13456;BME280;6800;50.940;6.940;2023-04-07T03:19:14;100625.00;;;19.53;48.42
13456;BME280;6800;50.940;6.940;2023-04-07T03:23:16;100621.44;;;19.62;48.50
13456;BME280;6800;50.940;6.940;2023-04-07T03:27:18;100622.91;;;19.47;48.21
13456;BME280;6800;50.940;6.940;2023-04-07T03:31:20;100620.56;;;19.44;48.30
13456;BME280;6800;50.940;6.940;2023-04-07T03:35:22;100611.81;;;19.34;48.59
13456;BME280;6800;50.940;6.940;2023-04-07T03:39:23;100619.75;;;19.24;48.94
13456;BME280;6800;50.940;6.940;2023-04-07T03:43:25;100619.16;;;19.30;49.03
13456;BME280;6800;50.940;6.940;2023-04-07T03:47:26;100623.38;;;19.23;48.34
13456;BME280;6800;50.940;6.940;2023-04-07T03:51:28;100621.94;;;18.73;49.52
13456;BME280;6800;50.940;6.940;2023-04-07T03:55:29;100629.06;;;19.28;48.75
13456;BME280;6800;50.940;6.940;2023-04-07T03:59:31;100632.72;;;19.18;48.56
13456;BME280;6800;50.940;6.940;2023-04-07T04:03:33;100640.59;;;18.72;49.23
13456;BME280;6800;50.940;6.940;2023-04-07T04:07:35;100631.94;;;18.89;48.93
13456;BME280;6800;50.940;6.940;2023-04-07T04:11:36;100642.91;;;19.13;48.71
13456;BME280;6800;50.940;6.940;2023-04-07T04:15:38;100640.72;;;18.89;48.53
13456;BME280;6800;50.940;6.940;2023-04-07T04:19:39;100642.50;;;18.98;48.07
13456;BME280;6800;50.940;6.940;2023-04-07T04:23:40;100651.16;;;18.72;48.48
13456;BME280;6800;50.940;6.940;2023-04-07T04:27:42;100656.00;;;19.14;48.12
13456;BME280;6800;50.940;6.940;2023-04-07T04:31:43;100648.66;;;18.80;48.28
13456;BME280;6800;50.940;6.940;2023-04-07T04:35:45;100657.31;;;18.72;48.55
13456;BME280;6800;50.940;6.940;2023-04-07T04:39:47;100656.44;;;18.91;48.17
13456;BME280;6800;50.940;6.940;2023-04-07T04:43:48;100665.06;;;19.02;47.79
13456;BME280;6800;50.940;6.940;2023-04-07T04:47:49;100672.06;;;18.94;47.61
13456;BME280;6800;50.940;6.940;2023-04-07T04:51:51;100663.97;;;18.95;47.78
13456;BME280;6800;50.940;6.940;2023-04-07T04:55:52;100669.41;;;18.65;48.50
13456;BME280;6800;50.940;6.940;2023-04-07T04:59:54;100672.59;;;18.78;48.46
13456;BME280;6800;50.940;6.940;2023-04-07T05:03:55;100678.56;;;19.09;47.42
13456;BME280;6800;50.940;6.940;2023-04-07T05:07:57;100679.84;;;18.57;48.42
13456;BME280;6800;50.940;6.940;2023-04-07T05:11:58;100690.28;;;18.58;48.95
13456;BME280;6800;50.940;6.940;2023-04-07T05:16:01;100687.97;;;18.35;48.97
13456;BME280;6800;50.940;6.940;2023-04-07T05:20:03;100692.63;;;18.71;47.95
13456;BME280;6800;50.940;6.940;2023-04-07T05:24:05;100693.75;;;18.68;47.93
13456;BME280;6800;50.940;6.940;2023-04-07T05:28:12;100692.63;;;18.90;47.86
13456;BME280;6800;50.940;6.940;2023-04-07T05:32:18;100690.28;;;18.58;47.96
13456;BME280;6800;50.940;6.940;2023-04-07T05:36:19;100697.66;;;18.74;47.73
13456;BME280;6800;50.940;6.940;2023-04-07T05:40:20;100694.25;;;18.43;47.88
13456;BME280;6800;50.940;6.940;2023-04-07T05:44:22;100706.16;;;18.68;47.73
13456;BME280;6800;50.940;6.940;2023-04-07T05:48:23;100711.31;;;18.89;47.14
13456;BME280;6800;50.940;6.940;2023-04-07T05:52:25;100706.28;;;18.86;47.21
13456;BME280;6800;50.940;6.940;2023-04-07T05:56:27;100711.44;;;18.68;47.59
13456;BME280;6800;50.940;6.940;2023-04-07T06:00:28;100711.44;;;18.68;47.04
13456;BME280;6800;50.940;6.940;2023-04-07T06:04:30;100714.34;;;18.55;47.83
13456;BME280;6800;50.940;6.940;2023-04-07T06:08:31;100722.56;;;18.72;47.50
13456;BME280;6800;50.940;6.940;2023-04-07T06:12:32;100724.88;;;18.36;48.58
13456;BME280;6800;50.940;6.940;2023-04-07T06:16:34;100729.22;;;18.56;47.37
13456;BME280;6800;50.940;6.940;2023-04-07T06:20:35;100733.16;;;18.91;47.25
13456;BME280;6800;50.940;6.940;2023-04-07T06:24:37;100736.25;;;18.96;47.22
13456;BME280;6800;50.940;6.940;2023-04-07T06:28:38;100744.16;;;18.77;47.38
13456;BME280;6800;50.940;6.940;2023-04-07T06:32:40;100741.66;;;18.94;47.04
13456;BME280;6800;50.940;6.940;2023-04-07T06:36:41;100743.59;;;18.63;47.98
13456;BME280;6800;50.940;6.940;2023-04-07T06:40:42;100750.09;;;18.20;48.77
13456;BME280;6800;50.940;6.940;2023-04-07T06:44:44;100756.50;;;18.57;47.68
13456;BME280;6800;50.940;6.940;2023-04-07T06:48:45;100762.28;;;18.41;48.26
13456;BME280;6800;50.940;6.940;2023-04-07T06:52:47;100763.50;;;18.67;47.67
13456;BME280;6800;50.940;6.940;2023-04-07T06:56:49;100760.69;;;18.69;47.75
13456;BME280;6800;50.940;6.940;2023-04-07T07:00:50;100766.09;;;18.48;48.46
13456;BME280;6800;50.940;6.940;2023-04-07T07:04:52;100776.03;;;18.35;48.92
13456;BME280;6800;50.940;6.940;2023-04-07T07:08:53;100768.78;;;18.67;47.73
13456;BME280;6800;50.940;6.940;2023-04-07T07:12:55;100771.72;;;18.84;47.95
13456;BME280;6800;50.940;6.940;2023-04-07T07:16:56;100775.03;;;18.66;48.08
13456;BME280;6800;50.940;6.940;2023-04-07T07:20:57;100779.03;;;18.51;48.70
13456;BME280;6800;50.940;6.940;2023-04-07T07:24:59;100796.31;;;18.65;48.18
13456;BME280;6800;50.940;6.940;2023-04-07T07:29:00;100795.53;;;18.74;47.68
13456;BME280;6800;50.940;6.940;2023-04-07T07:33:02;100792.75;;;18.95;47.63
13456;BME280;6800;50.940;6.940;2023-04-07T07:37:03;100802.75;;;18.82;47.72
13456;BME280;6800;50.940;6.940;2023-04-07T07:41:05;100797.50;;;18.91;48.13
13456;BME280;6800;50.940;6.940;2023-04-07T07:45:07;100805.75;;;19.17;47.33
13456;BME280;6800;50.940;6.940;2023-04-07T07:49:09;100806.47;;;19.38;46.77
13456;BME280;6800;50.940;6.940;2023-04-07T07:53:10;100802.13;;;19.27;47.76
13456;BME280;6800;50.940;6.940;2023-04-07T07:57:11;100806.16;;;19.41;47.29
13456;BME280;6800;50.940;6.940;2023-04-07T08:01:13;100810.06;;;19.37;46.96
13456;BME280;6800;50.940;6.940;2023-04-07T08:05:14;100807.28;;;19.48;46.81
13456;BME280;6800;50.940;6.940;2023-04-07T08:09:17;100821.75;;;19.25;47.07
13456;BME280;6800;50.940;6.940;2023-04-07T08:13:18;100820.94;;;19.15;46.67
13456;BME280;6800;50.940;6.940;2023-04-07T08:17:20;100822.63;;;19.35;46.65
13456;BME280;6800;50.940;6.940;2023-04-07T08:21:21;100828.06;;;19.53;45.69
13456;BME280;6800;50.940;6.940;2023-04-07T08:25:22;100835.59;;;19.57;45.62
13456;BME280;6800;50.940;6.940;2023-04-07T08:29:24;100839.59;;;19.80;46.44
13456;BME280;6800;50.940;6.940;2023-04-07T08:33:25;100841.13;;;19.73;46.16
13456;BME280;6800;50.940;6.940;2023-04-07T08:37:26;100845.16;;;19.77;45.63
13456;BME280;6800;50.940;6.940;2023-04-07T08:41:32;100845.69;;;19.90;45.02
13456;BME280;6800;50.940;6.940;2023-04-07T08:45:38;100848.09;;;19.84;46.01
13456;BME280;6800;50.940;6.940;2023-04-07T08:49:43;100852.25;;;19.77;45.60
13456;BME280;6800;50.940;6.940;2023-04-07T08:53:49;100854.88;;;20.05;45.72
13456;BME280;6800;50.940;6.940;2023-04-07T08:57:52;100858.00;;;19.82;45.59
13456;BME280;6800;50.940;6.940;2023-04-07T09:01:53;100858.56;;;19.47;46.47
13456;BME280;6800;50.940;6.940;2023-04-07T09:05:55;100855.75;;;19.77;45.43
13456;BME280;6800;50.940;6.940;2023-04-07T09:09:57;100855.91;;;19.76;45.53
13456;BME280;6800;50.940;6.940;2023-04-07T09:13:58;100864.81;;;19.84;45.26
13456;BME280;6800;50.940;6.940;2023-04-07T09:18:01;100857.78;;;20.21;44.54
13456;BME280;6800;50.940;6.940;2023-04-07T09:22:03;100870.09;;;20.03;44.63
13456;BME280;6800;50.940;6.940;2023-04-07T09:26:17;100876.69;;;20.46;43.91
13456;BME280;6800;50.940;6.940;2023-04-07T09:30:23;100877.06;;;19.95;44.15
13456;BME280;6800;50.940;6.940;2023-04-07T09:34:28;100877.78;;;19.87;44.46
13456;BME280;6800;50.940;6.940;2023-04-07T09:38:40;100878.84;;;20.13;43.70
13456;BME280;6800;50.940;6.940;2023-04-07T09:42:45;100876.09;;;20.05;43.90
13456;BME280;6800;50.940;6.940;2023-04-07T09:51:04;100883.50;;;19.73;44.61
13456;BME280;6800;50.940;6.940;2023-04-07T09:55:06;100887.84;;;19.74;44.76
13456;BME280;6800;50.940;6.940;2023-04-07T09:59:08;100880.38;;;20.06;43.64
13456;BME280;6800;50.940;6.940;2023-04-07T10:03:10;100882.06;;;19.98;43.67
13456;BME280;6800;50.940;6.940;2023-04-07T10:07:14;100893.34;;;20.29;43.86
13456;BME280;6800;50.940;6.940;2023-04-07T10:11:15;100891.53;;;20.19;43.94
13456;BME280;6800;50.940;6.940;2023-04-07T10:15:18;100891.59;;;19.81;45.65
13456;BME280;6800;50.940;6.940;2023-04-07T10:19:20;100897.75;;;19.72;45.06
13456;BME280;6800;50.940;6.940;2023-04-07T10:23:27;100896.16;;;20.08;44.51
13456;BME280;6800;50.940;6.940;2023-04-07T10:27:58;100909.00;;;20.32;44.23
13456;BME280;6800;50.940;6.940;2023-04-07T10:32:01;100907.78;;;19.78;45.23
13456;BME280;6800;50.940;6.940;2023-04-07T10:36:06;100915.53;;;20.08;44.55
13456;BME280;6800;50.940;6.940;2023-04-07T10:48:42;100915.72;;;20.63;44.02
13456;BME280;6800;50.940;6.940;2023-04-07T10:52:45;100917.91;;;20.21;44.48
13456;BME280;6800;50.940;6.940;2023-04-07T11:05:18;100930.06;;;19.85;44.94
13456;BME280;6800;50.940;6.940;2023-04-07T11:09:20;100926.97;;;20.18;45.05
13456;BME280;6800;50.940;6.940;2023-04-07T11:13:22;100922.25;;;20.03;44.86
13456;BME280;6800;50.940;6.940;2023-04-07T11:17:24;100932.66;;;20.43;44.42
13456;BME280;6800;50.940;6.940;2023-04-07T11:21:27;100928.53;;;20.21;44.44
13456;BME280;6800;50.940;6.940;2023-04-07T11:25:33;100927.28;;;20.71;43.34
13456;BME280;6800;50.940;6.940;2023-04-07T11:29:36;100923.69;;;20.90;43.48
13456;BME280;6800;50.940;6.940;2023-04-07T11:33:38;100922.50;;;21.12;43.15
13456;BME280;6800;50.940;6.940;2023-04-07T11:37:41;100933.81;;;20.77;43.66
13456;BME280;6800;50.940;6.940;2023-04-07T11:41:46;100943.13;;;21.18;43.03
13456;BME280;6800;50.940;6.940;2023-04-07T11:46:12;100935.41;;;21.24;42.84
13456;BME280;6800;50.940;6.940;2023-04-07T11:50:13;100933.06;;;21.39;42.75
13456;BME280;6800;50.940;6.940;2023-04-07T11:54:15;100944.38;;;21.41;41.48
13456;BME280;6800;50.940;6.940;2023-04-07T11:58:17;100939.06;;;21.76;41.51
13456;BME280;6800;50.940;6.940;2023-04-07T12:02:33;100949.97;;;21.65;41.88
13456;BME280;6800;50.940;6.940;2023-04-07T12:06:35;100955.47;;;21.09;42.23
13456;BME280;6800;50.940;6.940;2023-04-07T12:10:39;100954.03;;;21.15;41.85
13456;BME280;6800;50.940;6.940;2023-04-07T12:14:41;100951.44;;;21.32;41.98
13456;BME280;6800;50.940;6.940;2023-04-07T12:18:42;100967.19;;;21.16;42.52
13456;BME280;6800;50.940;6.940;2023-04-07T12:22:44;100959.81;;;21.37;42.10
13456;BME280;6800;50.940;6.940;2023-04-07T12:26:46;100965.66;;;20.77;42.37
13456;BME280;6800;50.940;6.940;2023-04-07T12:30:48;100974.09;;;20.63;42.46
13456;BME280;6800;50.940;6.940;2023-04-07T12:34:49;100967.34;;;20.78;41.93
13456;BME280;6800;50.940;6.940;2023-04-07T12:38:50;100962.81;;;21.42;41.38
13456;BME280;6800;50.940;6.940;2023-04-07T12:42:52;100965.13;;;21.37;42.60
13456;BME280;6800;50.940;6.940;2023-04-07T12:46:54;100979.56;;;21.52;41.84
13456;BME280;6800;50.940;6.940;2023-04-07T12:50:55;100976.97;;;21.16;40.68
13456;BME280;6800;50.940;6.940;2023-04-07T12:54:57;100989.97;;;20.72;42.39
13456;BME280;6800;50.940;6.940;2023-04-07T12:58:58;100974.75;;;21.38;41.18
13456;BME280;6800;50.940;6.940;2023-04-07T13:03:00;100990.97;;;21.08;42.17
13456;BME280;6800;50.940;6.940;2023-04-07T13:07:01;100987.84;;;21.22;42.41
13456;BME280;6800;50.940;6.940;2023-04-07T13:11:03;100983.38;;;21.40;42.51
13456;BME280;6800;50.940;6.940;2023-04-07T13:15:05;100988.19;;;21.10;43.61
13456;BME280;6800;50.940;6.940;2023-04-07T13:19:07;100987.69;;;21.68;41.91
13456;BME280;6800;50.940;6.940;2023-04-07T13:23:10;100992.53;;;21.55;42.53
13456;BME280;6800;50.940;6.940;2023-04-07T13:27:12;100993.28;;;21.48;41.99
13456;BME280;6800;50.940;6.940;2023-04-07T13:31:14;100994.75;;;21.60;42.25
13456;BME280;6800;50.940;6.940;2023-04-07T13:35:16;100993.56;;;21.45;41.06
13456;BME280;6800;50.940;6.940;2023-04-07T13:39:18;100979.94;;;21.75;41.50
13456;BME280;6800;50.940;6.940;2023-04-07T13:43:19;100986.81;;;22.13;40.54
13456;BME280;6800;50.940;6.940;2023-04-07T13:47:21;100991.38;;;22.46;40.39
13456;BME280;6800;50.940;6.940;2023-04-07T13:51:22;100994.25;;;22.09;40.20
13456;BME280;6800;50.940;6.940;2023-04-07T13:55:24;100988.19;;;22.60;40.52
13456;BME280;6800;50.940;6.940;2023-04-07T13:59:25;100982.88;;;22.60;39.53
13456;BME280;6800;50.940;6.940;2023-04-07T14:03:27;100976.63;;;23.11;39.47
13456;BME280;6800;50.940;6.940;2023-04-07T14:07:28;100975.63;;;22.78;40.51
13456;BME280;6800;50.940;6.940;2023-04-07T14:11:30;100970.94;;;22.72;38.76
13456;BME280;6800;50.940;6.940;2023-04-07T14:15:32;100964.56;;;22.91;38.36
13456;BME280;6800;50.940;6.940;2023-04-07T14:19:34;100978.00;;;22.38;38.27
13456;BME280;6800;50.940;6.940;2023-04-07T14:23:36;100985.59;;;22.07;39.37
13456;BME280;6800;50.940;6.940;2023-04-07T14:27:38;100982.47;;;22.12;40.11
13456;BME280;6800;50.940;6.940;2023-04-07T14:31:39;100996.53;;;21.87;40.78
13456;BME280;6800;50.940;6.940;2023-04-07T14:35:41;100996.47;;;21.96;41.43
13456;BME280;6800;50.940;6.940;2023-04-07T14:39:42;100996.94;;;21.64;41.99
13456;BME280;6800;50.940;6.940;2023-04-07T14:43:55;100992.38;;;21.39;42.47
13456;BME280;6800;50.940;6.940;2023-04-07T14:47:57;101000.81;;;21.25;43.42
13456;BME280;6800;50.940;6.940;2023-04-07T14:51:58;100995.03;;;21.12;44.25
13456;BME280;6800;50.940;6.940;2023-04-07T14:56:03;101010.16;;;21.29;43.19
13456;BME280;6800;50.940;6.940;2023-04-07T15:00:05;101002.84;;;21.14;43.61
13456;BME280;6800;50.940;6.940;2023-04-07T15:04:09;101009.78;;;21.24;43.11
13456;BME280;6800;50.940;6.940;2023-04-07T15:08:11;101016.69;;;20.61;44.12
13456;BME280;6800;50.940;6.940;2023-04-07T15:12:12;101021.19;;;20.23;43.87
13456;BME280;6800;50.940;6.940;2023-04-07T15:16:14;101024.81;;;20.87;43.83
13456;BME280;6800;50.940;6.940;2023-04-07T15:20:16;101019.84;;;21.21;42.61
13456;BME280;6800;50.940;6.940;2023-04-07T15:24:17;101025.94;;;20.94;42.85
13456;BME280;6800;50.940;6.940;2023-04-07T15:28:19;101029.53;;;21.12;42.46
13456;BME280;6800;50.940;6.940;2023-04-07T15:32:21;101022.38;;;21.13;41.91
13456;BME280;6800;50.940;6.940;2023-04-07T15:36:22;101027.84;;;21.38;41.36
13456;BME280;6800;50.940;6.940;2023-04-07T15:40:24;101026.50;;;21.34;40.93
13456;BME280;6800;50.940;6.940;2023-04-07T15:44:25;101031.97;;;20.86;41.54
13456;BME280;6800;50.940;6.940;2023-04-07T15:48:26;101037.34;;;20.58;42.35
13456;BME280;6800;50.940;6.940;2023-04-07T15:52:29;101037.66;;;21.01;42.10
13456;BME280;6800;50.940;6.940;2023-04-07T15:56:30;101033.63;;;20.97;42.21
13456;BME280;6800;50.940;6.940;2023-04-07T16:00:33;101041.72;;;21.05;41.98
13456;BME280;6800;50.940;6.940;2023-04-07T16:04:34;101033.09;;;21.30;42.17
13456;BME280;6800;50.940;6.940;2023-04-07T16:08:36;101035.72;;;21.57;41.46
13456;BME280;6800;50.940;6.940;2023-04-07T16:12:38;101036.31;;;21.51;41.54
13456;BME280;6800;50.940;6.940;2023-04-07T16:16:40;101043.56;;;21.32;41.52
13456;BME280;6800;50.940;6.940;2023-04-07T16:20:41;101049.50;;;21.70;40.42
13456;BME280;6800;50.940;6.940;2023-04-07T16:24:43;101046.72;;;21.08;41.43
13456;BME280;6800;50.940;6.940;2023-04-07T16:28:44;101046.69;;;21.72;40.56
13456;BME280;6800;50.940;6.940;2023-04-07T16:32:46;101051.78;;;21.93;39.66
13456;BME280;6800;50.940;6.940;2023-04-07T16:36:47;101048.44;;;21.91;39.98
13456;BME280;6800;50.940;6.940;2023-04-07T16:40:50;101057.16;;;22.01;39.57
13456;BME280;6800;50.940;6.940;2023-04-07T16:45:04;101062.06;;;21.51;40.15
13456;BME280;6800;50.940;6.940;2023-04-07T16:49:06;101067.06;;;21.27;40.85
13456;BME280;6800;50.940;6.940;2023-04-07T16:53:07;101076.16;;;21.24;41.36
13456;BME280;6800;50.940;6.940;2023-04-07T16:57:09;101082.00;;;21.37;40.96
13456;BME280;6800;50.940;6.940;2023-04-07T17:01:12;101078.81;;;20.59;41.36
13456;BME280;6800;50.940;6.940;2023-04-07T17:05:13;101078.50;;;20.62;41.78
13456;BME280;6800;50.940;6.940;2023-04-07T17:09:14;101086.78;;;20.59;41.95
13456;BME280;6800;50.940;6.940;2023-04-07T17:13:17;101098.91;;;20.33;41.87
13456;BME280;6800;50.940;6.940;2023-04-07T17:17:19;101109.53;;;20.42;41.55
13456;BME280;6800;50.940;6.940;2023-04-07T17:21:20;101111.63;;;20.58;41.96
13456;BME280;6800;50.940;6.940;2023-04-07T17:25:22;101116.63;;;20.51;42.75
13456;BME280;6800;50.940;6.940;2023-04-07T17:29:23;101122.25;;;20.48;42.48
13456;BME280;6800;50.940;6.940;2023-04-07T17:33:29;101128.78;;;20.54;42.29
13456;BME280;6800;50.940;6.940;2023-04-07T17:37:31;101137.31;;;20.29;42.77
13456;BME280;6800;50.940;6.940;2023-04-07T17:41:32;101144.69;;;20.35;42.90
13456;BME280;6800;50.940;6.940;2023-04-07T17:45:38;101139.97;;;20.48;42.08
13456;BME280;6800;50.940;6.940;2023-04-07T17:49:40;101148.06;;;20.46;42.11
13456;BME280;6800;50.940;6.940;2023-04-07T17:53:42;101160.06;;;20.41;42.36
13456;BME280;6800;50.940;6.940;2023-04-07T17:57:43;101164.28;;;20.03;43.31
13456;BME280;6800;50.940;6.940;2023-04-07T18:01:45;101164.97;;;20.55;42.78
13456;BME280;6800;50.940;6.940;2023-04-07T18:05:46;101171.44;;;20.12;43.29
13456;BME280;6800;50.940;6.940;2023-04-07T18:09:49;101172.84;;;20.16;43.03
13456;BME280;6800;50.940;6.940;2023-04-07T18:13:50;101180.69;;;20.28;42.86
13456;BME280;6800;50.940;6.940;2023-04-07T18:17:52;101178.34;;;20.44;42.66
13456;BME280;6800;50.940;6.940;2023-04-07T18:21:55;101175.97;;;20.41;43.21
13456;BME280;6800;50.940;6.940;2023-04-07T18:25:56;101181.28;;;20.50;42.94
13456;BME280;6800;50.940;6.940;2023-04-07T18:29:58;101191.91;;;20.50;42.68
13456;BME280;6800;50.940;6.940;2023-04-07T18:33:59;101192.97;;;20.29;43.58
13456;BME280;6800;50.940;6.940;2023-04-07T18:38:01;101199.72;;;20.02;43.05
13456;BME280;6800;50.940;6.940;2023-04-07T18:42:04;101204.38;;;20.19;43.08
13456;BME280;6800;50.940;6.940;2023-04-07T18:46:06;101212.16;;;20.02;42.63
13456;BME280;6800;50.940;6.940;2023-04-07T18:50:07;101218.59;;;20.18;42.92
13456;BME280;6800;50.940;6.940;2023-04-07T18:54:09;101225.47;;;20.21;43.01
13456;BME280;6800;50.940;6.940;2023-04-07T18:58:10;101223.22;;;19.86;43.60
13456;BME280;6800;50.940;6.940;2023-04-07T19:02:12;101230.09;;;19.98;43.47
13456;BME280;6800;50.940;6.940;2023-04-07T19:06:14;101235.56;;;20.06;43.23
13456;BME280;6800;50.940;6.940;2023-04-07T19:10:18;101241.94;;;19.94;43.29
13456;BME280;6800;50.940;6.940;2023-04-07T19:14:19;101240.06;;;20.15;43.14
13456;BME280;6800;50.940;6.940;2023-04-07T19:18:21;101250.88;;;20.23;42.61
13456;BME280;6800;50.940;6.940;2023-04-07T19:22:22;101252.81;;;19.91;43.17
13456;BME280;6800;50.940;6.940;2023-04-07T19:26:24;101249.97;;;19.83;43.33
13456;BME280;6800;50.940;6.940;2023-04-07T19:30:26;101252.63;;;20.13;42.64
13456;BME280;6800;50.940;6.940;2023-04-07T19:34:28;101254.41;;;20.03;43.00
13456;BME280;6800;50.940;6.940;2023-04-07T19:38:29;101268.72;;;20.21;43.29
13456;BME280;6800;50.940;6.940;2023-04-07T19:42:31;101263.22;;;20.04;43.31
13456;BME280;6800;50.940;6.940;2023-04-07T19:46:32;101271.03;;;20.05;43.32
13456;BME280;6800;50.940;6.940;2023-04-07T19:50:33;101269.69;;;19.90;43.65
13456;BME280;6800;50.940;6.940;2023-04-07T19:54:41;101270.63;;;20.10;43.19
13456;BME280;6800;50.940;6.940;2023-04-07T19:58:42;101274.38;;;20.07;43.40
13456;BME280;6800;50.940;6.940;2023-04-07T20:02:44;101278.97;;;20.05;43.50
13456;BME280;6800;50.940;6.940;2023-04-07T20:06:46;101284.91;;;20.18;43.18
13456;BME280;6800;50.940;6.940;2023-04-07T20:10:49;101287.78;;;20.06;43.09
13456;BME280;6800;50.940;6.940;2023-04-07T20:14:51;101286.94;;;20.05;42.82
13456;BME280;6800;50.940;6.940;2023-04-07T20:18:52;101292.44;;;19.93;43.87
13456;BME280;6800;50.940;6.940;2023-04-07T20:22:54;101290.81;;;20.01;42.88
13456;BME280;6800;50.940;6.940;2023-04-07T20:26:55;101290.97;;;19.79;43.38
13456;BME280;6800;50.940;6.940;2023-04-07T20:30:58;101299.31;;;19.95;43.38
13456;BME280;6800;50.940;6.940;2023-04-07T20:35:02;101302.84;;;20.05;42.95
13456;BME280;6800;50.940;6.940;2023-04-07T20:39:03;101301.41;;;20.01;42.79
13456;BME280;6800;50.940;6.940;2023-04-07T20:43:04;101307.81;;;19.99;43.08
13456;BME280;6800;50.940;6.940;2023-04-07T20:47:10;101314.59;;;19.92;43.34
13456;BME280;6800;50.940;6.940;2023-04-07T20:51:12;101320.81;;;20.02;43.28
13456;BME280;6800;50.940;6.940;2023-04-07T20:55:14;101327.09;;;19.80;43.01
13456;BME280;6800;50.940;6.940;2023-04-07T20:59:15;101328.88;;;20.00;43.05
13456;BME280;6800;50.940;6.940;2023-04-07T21:03:16;101320.63;;;19.94;42.86
13456;BME280;6800;50.940;6.940;2023-04-07T21:07:18;101321.13;;;19.88;43.34
13456;BME280;6800;50.940;6.940;2023-04-07T21:11:20;101323.94;;;19.86;42.89
13456;BME280;6800;50.940;6.940;2023-04-07T21:15:22;101327.16;;;19.90;43.06
13456;BME280;6800;50.940;6.940;2023-04-07T21:19:23;101326.31;;;19.89;43.40
13456;BME280;6800;50.940;6.940;2023-04-07T21:23:25;101326.59;;;19.86;43.35
13456;BME280;6800;50.940;6.940;2023-04-07T21:27:28;101326.31;;;19.69;43.60
13456;BME280;6800;50.940;6.940;2023-04-07T21:31:29;101327.50;;;19.55;43.91
13456;BME280;6800;50.940;6.940;2023-04-07T21:35:30;101321.50;;;19.53;44.24
13456;BME280;6800;50.940;6.940;2023-04-07T21:39:33;101331.81;;;19.56;43.29
13456;BME280;6800;50.940;6.940;2023-04-07T21:43:34;101328.63;;;19.41;44.08
13456;BME280;6800;50.940;6.940;2023-04-07T21:47:36;101326.13;;;19.61;43.85
13456;BME280;6800;50.940;6.940;2023-04-07T21:51:37;101332.72;;;19.66;43.30